createdAt,value
2022-12-23T00:00:01.481Z,154.59
2022-12-23T00:01:01.510Z,153.37
2022-12-23T00:02:01.484Z,153.25
2022-12-23T00:03:01.616Z,154.73
2022-12-23T00:04:01.479Z,155.86
2022-12-23T00:05:01.491Z,157.05
2022-12-23T00:06:01.416Z,158.07
2022-12-23T00:07:01.478Z,155.87
2022-12-23T00:08:01.434Z,158.98
2022-12-23T00:09:01.492Z,158.05
2022-12-23T00:10:01.464Z,161.94
2022-12-23T00:11:01.451Z,165.49
2022-12-23T00:12:01.452Z,163.30
2022-12-23T00:13:01.471Z,165.34
2022-12-23T00:14:01.444Z,167.50
2022-12-23T00:15:01.514Z,168.86
2022-12-23T00:16:01.497Z,169.08
2022-12-23T00:17:01.548Z,170.30
2022-12-23T00:18:01.443Z,170.46
2022-12-23T00:19:01.451Z,170.62
2022-12-23T00:20:01.452Z,169.06
2022-12-23T00:21:06.749Z,170.48
2022-12-23T00:22:02.557Z,170.86
2022-12-23T00:23:01.451Z,171.43
2022-12-23T00:24:01.496Z,172.10
2022-12-23T00:25:01.481Z,172.01
2022-12-23T00:26:01.457Z,177.00
2022-12-23T00:27:01.436Z,175.38
2022-12-23T00:28:01.588Z,173.73
2022-12-23T00:29:01.419Z,175.97
2022-12-23T00:30:01.564Z,176.76
2022-12-23T00:31:01.437Z,177.21
2022-12-23T00:32:01.533Z,174.05
2022-12-23T00:33:01.442Z,176.15
2022-12-23T00:34:01.469Z,177.25
2022-12-23T00:35:01.433Z,176.94
2022-12-23T00:36:01.555Z,178.17
2022-12-23T00:37:01.479Z,176.83
2022-12-23T00:38:01.488Z,179.68
2022-12-23T00:39:01.487Z,185.65
2022-12-23T00:40:06.548Z,180.73
2022-12-23T00:41:02.460Z,180.96
2022-12-23T00:42:01.471Z,181.62
2022-12-23T00:43:01.493Z,181.51
2022-12-23T00:44:01.439Z,181.94
2022-12-23T00:45:01.472Z,185.44
2022-12-23T00:46:01.523Z,186.17
2022-12-23T00:47:01.453Z,184.64
2022-12-23T00:48:01.410Z,183.21
2022-12-23T00:49:01.455Z,187.73
2022-12-23T00:50:01.440Z,185.44
2022-12-23T00:51:01.442Z,182.56
2022-12-23T00:52:01.421Z,185.66
2022-12-23T00:53:01.417Z,183.62
2022-12-23T00:54:01.395Z,183.05
2022-12-23T00:55:01.510Z,185.99
2022-12-23T00:56:01.375Z,185.99
2022-12-23T00:57:01.402Z,188.42
2022-12-23T00:58:01.385Z,188.09
2022-12-23T00:59:01.397Z,190.01
2022-12-23T01:00:01.436Z,190.08
2022-12-23T01:01:01.360Z,189.74
2022-12-23T01:02:01.424Z,190.63
2022-12-23T01:03:01.415Z,192.05
2022-12-23T01:04:01.306Z,191.54
2022-12-23T01:05:01.295Z,191.03
2022-12-23T01:06:01.252Z,193.01
2022-12-23T01:07:01.243Z,193.08
2022-12-23T01:08:01.258Z,195.03
2022-12-23T01:09:01.279Z,195.33
2022-12-23T01:10:01.199Z,197.03
2022-12-23T01:11:01.224Z,193.34
2022-12-23T01:12:01.192Z,194.73
2022-12-23T01:13:01.220Z,193.60
2022-12-23T01:14:01.173Z,194.83
2022-12-23T01:15:01.165Z,196.17
2022-12-23T01:16:01.162Z,285.97
2022-12-23T01:17:01.216Z,226.47
2022-12-23T01:18:01.115Z,189.70
2022-12-23T01:19:01.085Z,190.45
2022-12-23T01:20:01.075Z,192.47
2022-12-23T01:21:01.068Z,192.02
2022-12-23T01:22:01.031Z,191.34
2022-12-23T01:23:01.023Z,191.67
2022-12-23T01:24:00.991Z,189.86
2022-12-23T01:25:01.015Z,188.83
2022-12-23T01:26:00.963Z,189.54
2022-12-23T01:27:00.948Z,189.44
2022-12-23T01:28:00.997Z,186.72
2022-12-23T01:29:01.075Z,189.03
2022-12-23T01:30:00.866Z,187.39
2022-12-23T01:31:00.870Z,188.45
2022-12-23T01:32:00.904Z,186.72
2022-12-23T01:33:00.803Z,187.75
2022-12-23T01:34:00.891Z,184.96
2022-12-23T01:35:00.790Z,190.13
2022-12-23T01:36:00.787Z,213.81
2022-12-23T01:37:00.785Z,255.75
2022-12-23T01:38:00.754Z,242.20
2022-12-23T01:39:00.731Z,248.38
2022-12-23T01:40:00.716Z,228.92
2022-12-23T01:41:00.706Z,226.80
2022-12-23T01:42:00.672Z,220.88
2022-12-23T01:43:00.672Z,219.34
2022-12-23T01:44:00.649Z,222.56
2022-12-23T01:45:00.675Z,218.46
2022-12-23T01:46:00.636Z,218.20
2022-12-23T01:47:00.626Z,221.34
2022-12-23T01:48:00.577Z,219.30
2022-12-23T01:49:00.579Z,219.15
2022-12-23T01:50:00.554Z,218.56
2022-12-23T01:51:00.541Z,222.49
2022-12-23T01:52:00.488Z,216.61
2022-12-23T01:53:06.894Z,217.76
2022-12-23T01:54:01.532Z,217.78
2022-12-23T01:55:00.462Z,212.97
2022-12-23T01:56:00.492Z,213.66
2022-12-23T01:57:00.432Z,214.89
2022-12-23T01:58:00.483Z,224.17
2022-12-23T01:59:00.430Z,220.42
2022-12-23T02:00:00.430Z,218.62
2022-12-23T02:01:00.422Z,214.61
2022-12-23T02:02:00.694Z,210.99
2022-12-23T02:03:00.481Z,215.77
2022-12-23T02:04:00.415Z,214.96
2022-12-23T02:05:00.311Z,211.28
2022-12-23T02:06:00.318Z,213.49
2022-12-23T02:07:00.324Z,216.65
2022-12-23T02:08:00.349Z,214.68
2022-12-23T02:09:00.280Z,221.47
2022-12-23T02:10:00.300Z,215.11
2022-12-23T02:11:00.249Z,219.59
2022-12-23T02:12:00.285Z,215.21
2022-12-23T02:13:00.227Z,215.05
2022-12-23T02:14:00.246Z,218.06
2022-12-23T02:15:00.196Z,217.51
2022-12-23T02:16:00.227Z,219.65
2022-12-23T02:17:00.273Z,216.57
2022-12-23T02:18:00.219Z,217.38
2022-12-23T02:19:00.161Z,216.72
2022-12-23T02:20:00.176Z,216.80
2022-12-23T02:21:00.145Z,214.53
2022-12-23T02:22:00.174Z,212.48
2022-12-23T02:23:00.128Z,210.72
2022-12-23T02:24:00.183Z,210.74
2022-12-23T02:25:00.120Z,208.30
2022-12-23T02:26:00.133Z,209.18
2022-12-23T02:27:00.119Z,208.09
2022-12-23T02:28:00.128Z,208.53
2022-12-23T02:29:00.118Z,206.00
2022-12-23T02:30:00.146Z,207.28
2022-12-23T02:31:00.139Z,208.84
2022-12-23T02:32:00.131Z,207.29
2022-12-23T02:33:00.092Z,206.19
2022-12-23T02:34:00.065Z,206.46
2022-12-23T02:35:00.007Z,208.28
2022-12-23T02:36:00.061Z,203.78
2022-12-23T02:37:00.006Z,205.80
2022-12-23T02:38:00.044Z,205.80
2022-12-23T02:38:59.993Z,205.99
2022-12-23T02:40:00.019Z,204.00
2022-12-23T02:40:59.974Z,204.38
2022-12-23T02:42:00.020Z,203.94
2022-12-23T02:43:00.002Z,204.07
2022-12-23T02:44:00.006Z,206.61
2022-12-23T02:44:59.939Z,205.60
2022-12-23T02:45:59.983Z,205.20
2022-12-23T02:46:59.962Z,203.35
2022-12-23T02:47:59.977Z,204.31
2022-12-23T02:48:59.912Z,202.79
2022-12-23T02:49:59.972Z,205.61
2022-12-23T02:50:59.924Z,205.07
2022-12-23T02:51:59.939Z,206.20
2022-12-23T02:52:59.900Z,205.34
2022-12-23T02:53:59.928Z,206.53
2022-12-23T02:54:59.882Z,206.07
2022-12-23T02:55:59.907Z,206.14
2022-12-23T02:56:59.860Z,205.85
2022-12-23T02:57:59.884Z,205.34
2022-12-23T02:58:59.840Z,204.08
2022-12-23T02:59:59.875Z,204.02
2022-12-23T03:00:59.824Z,204.14
2022-12-23T03:02:00.019Z,203.07
2022-12-23T03:02:59.959Z,205.45
2022-12-23T03:03:59.938Z,207.45
2022-12-23T03:05:01.122Z,203.19
2022-12-23T03:05:59.855Z,205.98
2022-12-23T03:07:02.961Z,203.75
2022-12-23T03:08:00.878Z,204.10
2022-12-23T03:08:59.808Z,204.35
2022-12-23T03:09:59.855Z,204.41
2022-12-23T03:10:59.786Z,204.80
2022-12-23T03:11:59.837Z,205.32
2022-12-23T03:12:59.818Z,203.66
2022-12-23T03:13:59.845Z,204.88
2022-12-23T03:14:59.868Z,202.93
2022-12-23T03:15:59.909Z,203.85
2022-12-23T03:16:59.779Z,204.78
2022-12-23T03:17:59.820Z,205.36
2022-12-23T03:18:59.750Z,202.27
2022-12-23T03:19:59.824Z,202.41
2022-12-23T03:20:59.762Z,201.75
2022-12-23T03:21:59.781Z,204.06
2022-12-23T03:22:59.739Z,205.99
2022-12-23T03:23:59.793Z,203.18
2022-12-23T03:24:59.751Z,202.84
2022-12-23T03:25:59.755Z,203.67
2022-12-23T03:26:59.734Z,204.60
2022-12-23T03:27:59.779Z,200.48
2022-12-23T03:28:59.744Z,202.76
2022-12-23T03:29:59.740Z,199.31
2022-12-23T03:30:59.745Z,199.59
2022-12-23T03:31:59.775Z,200.59
2022-12-23T03:32:59.704Z,201.86
2022-12-23T03:33:59.727Z,202.72
2022-12-23T03:34:59.688Z,200.82
2022-12-23T03:35:59.742Z,200.82
2022-12-23T03:36:59.729Z,200.74
2022-12-23T03:37:59.729Z,204.19
2022-12-23T03:38:59.690Z,200.59
2022-12-23T03:39:59.745Z,203.80
2022-12-23T03:40:59.708Z,199.32
2022-12-23T03:41:59.754Z,201.19
2022-12-23T03:42:59.722Z,201.57
2022-12-23T03:43:59.747Z,199.40
2022-12-23T03:45:36.349Z,200.40
2022-12-23T03:46:00.798Z,200.64
2022-12-23T03:46:59.732Z,200.79
2022-12-23T03:47:59.718Z,200.74
2022-12-23T03:48:59.692Z,200.76
2022-12-23T03:49:59.761Z,201.34
2022-12-23T03:50:59.713Z,202.77
2022-12-23T03:51:59.734Z,200.08
2022-12-23T03:52:59.730Z,200.71
2022-12-23T03:53:59.737Z,201.42
2022-12-23T03:54:59.732Z,201.32
2022-12-23T03:55:59.724Z,203.64
2022-12-23T03:56:59.691Z,201.01
2022-12-23T03:57:59.763Z,202.82
2022-12-23T03:58:59.704Z,200.45
2022-12-23T03:59:59.750Z,199.46
2022-12-23T04:00:59.691Z,200.16
2022-12-23T04:01:59.832Z,200.84
2022-12-23T04:02:59.792Z,199.97
2022-12-23T04:03:59.728Z,199.40
2022-12-23T04:04:59.690Z,200.07
2022-12-23T04:05:59.736Z,200.89
2022-12-23T04:06:59.684Z,199.01
2022-12-23T04:07:59.699Z,195.21
2022-12-23T04:08:59.673Z,201.88
2022-12-23T04:09:59.729Z,199.75
2022-12-23T04:10:59.669Z,199.94
2022-12-23T04:11:59.735Z,199.55
2022-12-23T04:12:59.699Z,198.48
2022-12-23T04:13:59.716Z,200.82
2022-12-23T04:14:59.671Z,199.24
2022-12-23T04:15:59.755Z,197.77
2022-12-23T04:16:59.670Z,198.14
2022-12-23T04:17:59.701Z,200.31
2022-12-23T04:18:59.687Z,197.85
2022-12-23T04:19:59.710Z,199.21
2022-12-23T04:20:59.669Z,199.93
2022-12-23T04:21:59.715Z,197.85
2022-12-23T04:22:59.675Z,197.94
2022-12-23T04:23:59.725Z,200.27
2022-12-23T04:24:59.672Z,200.42
2022-12-23T04:25:59.737Z,200.08
2022-12-23T04:26:59.686Z,197.13
2022-12-23T04:27:59.734Z,199.44
2022-12-23T04:28:59.684Z,199.54
2022-12-23T04:29:59.732Z,199.87
2022-12-23T04:30:59.724Z,196.70
2022-12-23T04:31:59.812Z,195.86
2022-12-23T04:32:59.704Z,197.30
2022-12-23T04:33:59.735Z,198.26
2022-12-23T04:34:59.688Z,197.68
2022-12-23T04:35:59.718Z,198.37
2022-12-23T04:36:59.680Z,197.25
2022-12-23T04:37:59.698Z,199.38
2022-12-23T04:38:59.625Z,198.25
2022-12-23T04:39:59.718Z,199.23
2022-12-23T04:40:59.656Z,194.51
2022-12-23T04:41:59.662Z,193.80
2022-12-23T04:42:59.648Z,198.32
2022-12-23T04:43:59.655Z,196.94
2022-12-23T04:44:59.616Z,198.99
2022-12-23T04:45:59.650Z,196.14
2022-12-23T04:46:59.676Z,198.11
2022-12-23T04:47:59.661Z,195.11
2022-12-23T04:48:59.654Z,198.88
2022-12-23T04:49:59.663Z,196.45
2022-12-23T04:50:59.665Z,197.53
2022-12-23T04:51:59.669Z,196.52
2022-12-23T04:52:59.627Z,195.71
2022-12-23T04:53:59.683Z,197.87
2022-12-23T04:54:59.667Z,196.14
2022-12-23T04:55:59.642Z,194.76
2022-12-23T04:56:59.628Z,197.46
2022-12-23T04:57:59.658Z,194.36
2022-12-23T04:58:59.664Z,194.79
2022-12-23T04:59:59.661Z,194.77
2022-12-23T05:00:59.661Z,197.28
2022-12-23T05:01:59.912Z,195.22
2022-12-23T05:02:59.745Z,198.12
2022-12-23T05:03:59.648Z,196.34
2022-12-23T05:04:59.660Z,195.81
2022-12-23T05:05:59.655Z,196.76
2022-12-23T05:06:59.661Z,197.30
2022-12-23T05:07:59.634Z,195.93
2022-12-23T05:08:59.686Z,196.14
2022-12-23T05:09:59.658Z,195.73
2022-12-23T05:10:59.661Z,195.03
2022-12-23T05:11:59.625Z,196.98
2022-12-23T05:12:59.635Z,195.40
2022-12-23T05:13:59.668Z,195.22
2022-12-23T05:14:59.624Z,194.69
2022-12-23T05:15:59.712Z,193.56
2022-12-23T05:17:05.271Z,196.30
2022-12-23T05:18:00.627Z,196.51
2022-12-23T05:18:59.591Z,196.71
2022-12-23T05:19:59.620Z,196.38
2022-12-23T05:20:59.612Z,195.67
2022-12-23T05:21:59.604Z,197.07
2022-12-23T05:22:59.632Z,197.08
2022-12-23T05:23:59.632Z,194.93
2022-12-23T05:24:59.639Z,194.80
2022-12-23T05:25:59.604Z,194.57
2022-12-23T05:27:00.553Z,195.54
2022-12-23T05:27:59.655Z,195.27
2022-12-23T05:28:59.616Z,194.36
2022-12-23T05:29:59.616Z,194.05
2022-12-23T05:30:59.616Z,194.47
2022-12-23T05:31:59.747Z,194.32
2022-12-23T05:32:59.712Z,192.96
2022-12-23T05:34:06.098Z,193.34
2022-12-23T05:35:00.654Z,193.54
2022-12-23T05:35:59.632Z,193.85
2022-12-23T05:36:59.656Z,192.44
2022-12-23T05:37:59.620Z,191.89
2022-12-23T05:38:59.630Z,193.47
2022-12-23T05:39:59.634Z,196.53
2022-12-23T05:40:59.645Z,194.32
2022-12-23T05:41:59.607Z,193.37
2022-12-23T05:42:59.650Z,194.94
2022-12-23T05:43:59.630Z,193.71
2022-12-23T05:44:59.658Z,194.87
2022-12-23T05:45:59.695Z,196.33
2022-12-23T05:46:59.633Z,195.31
2022-12-23T05:47:59.609Z,198.08
2022-12-23T05:48:59.621Z,192.41
2022-12-23T05:49:59.680Z,195.87
2022-12-23T05:50:59.650Z,195.59
2022-12-23T05:51:59.597Z,198.16
2022-12-23T05:52:59.617Z,202.63
2022-12-23T05:53:59.620Z,205.98
2022-12-23T05:54:59.633Z,207.93
2022-12-23T05:55:59.601Z,212.31
2022-12-23T05:56:59.621Z,209.16
2022-12-23T05:57:59.613Z,213.30
2022-12-23T05:58:59.628Z,213.69
2022-12-23T05:59:59.588Z,213.46
2022-12-23T06:00:59.639Z,221.78
2022-12-23T06:01:59.865Z,217.57
2022-12-23T06:02:59.935Z,225.98
2022-12-23T06:03:59.772Z,236.65
2022-12-23T06:04:59.612Z,250.00
2022-12-23T06:05:59.595Z,247.46
2022-12-23T06:06:59.617Z,239.34
2022-12-23T06:07:59.544Z,238.02
2022-12-23T06:09:00.358Z,238.47
2022-12-23T06:09:59.550Z,238.72
2022-12-23T06:10:59.588Z,240.61
2022-12-23T06:11:59.527Z,237.86
2022-12-23T06:12:59.579Z,236.36
2022-12-23T06:13:59.550Z,236.68
2022-12-23T06:14:59.553Z,239.19
2022-12-23T06:15:59.496Z,238.11
2022-12-23T06:16:59.719Z,240.87
2022-12-23T06:17:59.504Z,238.63
2022-12-23T06:18:59.536Z,242.01
2022-12-23T06:19:59.505Z,242.01
2022-12-23T06:20:59.535Z,241.37
2022-12-23T06:21:59.471Z,244.08
2022-12-23T06:22:59.497Z,246.55
2022-12-23T06:23:59.436Z,243.34
2022-12-23T06:24:59.484Z,241.33
2022-12-23T06:25:59.427Z,241.77
2022-12-23T06:26:59.434Z,243.78
2022-12-23T06:27:59.420Z,245.63
2022-12-23T06:28:59.452Z,242.55
2022-12-23T06:29:59.369Z,243.96
2022-12-23T06:30:59.402Z,242.79
2022-12-23T06:31:59.436Z,241.64
2022-12-23T06:32:59.358Z,243.12
2022-12-23T06:33:59.320Z,241.48
2022-12-23T06:34:59.329Z,239.38
2022-12-23T06:35:59.278Z,240.76
2022-12-23T06:36:59.295Z,240.17
2022-12-23T06:37:59.255Z,239.30
2022-12-23T06:38:59.238Z,236.96
2022-12-23T06:39:59.204Z,236.57
2022-12-23T06:40:59.229Z,239.81
2022-12-23T06:41:59.183Z,236.22
2022-12-23T06:42:59.199Z,235.81
2022-12-23T06:43:59.164Z,234.46
2022-12-23T06:44:59.171Z,234.52
2022-12-23T06:45:59.176Z,233.81
2022-12-23T06:46:59.167Z,234.48
2022-12-23T06:47:59.093Z,234.11
2022-12-23T06:48:59.117Z,232.14
2022-12-23T06:49:59.036Z,232.43
2022-12-23T06:50:59.047Z,230.30
2022-12-23T06:51:59.011Z,229.22
2022-12-23T06:52:59.025Z,231.68
2022-12-23T06:53:58.972Z,226.93
2022-12-23T06:54:59.018Z,226.45
2022-12-23T06:55:58.929Z,226.66
2022-12-23T06:56:58.966Z,228.05
2022-12-23T06:57:58.928Z,225.74
2022-12-23T06:58:58.944Z,225.48
2022-12-23T06:59:58.861Z,225.20
2022-12-23T07:00:58.912Z,226.09
2022-12-23T07:01:59.017Z,224.29
2022-12-23T07:02:58.998Z,225.88
2022-12-23T07:03:58.814Z,223.63
2022-12-23T07:04:58.846Z,226.14
2022-12-23T07:05:58.794Z,226.58
2022-12-23T07:06:58.827Z,223.56
2022-12-23T07:07:58.778Z,222.38
2022-12-23T07:08:58.780Z,223.21
2022-12-23T07:09:58.752Z,222.62
2022-12-23T07:10:58.784Z,222.19
2022-12-23T07:11:58.703Z,222.23
2022-12-23T07:12:58.743Z,220.93
2022-12-23T07:13:58.708Z,224.29
2022-12-23T07:14:58.710Z,219.75
2022-12-23T07:15:58.664Z,222.48
2022-12-23T07:16:58.722Z,221.24
2022-12-23T07:17:58.651Z,220.93
2022-12-23T07:18:58.675Z,219.12
2022-12-23T07:19:58.618Z,220.25
2022-12-23T07:20:58.630Z,219.44
2022-12-23T07:21:58.595Z,222.31
2022-12-23T07:22:58.615Z,219.02
2022-12-23T07:23:58.573Z,219.96
2022-12-23T07:24:58.569Z,218.45
2022-12-23T07:25:58.511Z,218.02
2022-12-23T07:26:58.514Z,219.44
2022-12-23T07:27:58.487Z,217.98
2022-12-23T07:28:58.488Z,217.77
2022-12-23T07:29:58.409Z,217.48
2022-12-23T07:30:58.484Z,217.86
2022-12-23T07:31:58.480Z,216.94
2022-12-23T07:32:58.431Z,214.41
2022-12-23T07:33:58.364Z,216.81
2022-12-23T07:34:58.383Z,216.49
2022-12-23T07:35:58.345Z,214.34
2022-12-23T07:36:58.355Z,215.59
2022-12-23T07:37:58.272Z,214.16
2022-12-23T07:38:58.283Z,213.46
2022-12-23T07:40:00.049Z,211.04
2022-12-23T07:40:59.248Z,211.37
2022-12-23T07:42:24.908Z,211.63
2022-12-23T07:42:59.199Z,211.36
2022-12-23T07:43:58.184Z,211.59
2022-12-23T07:44:58.171Z,211.77
2022-12-23T07:46:00.603Z,210.19
2022-12-23T07:46:58.131Z,214.34
2022-12-23T07:47:58.099Z,213.64
2022-12-23T07:48:58.100Z,211.36
2022-12-23T07:49:58.078Z,210.29
2022-12-23T07:50:58.076Z,210.92
2022-12-23T07:51:58.040Z,210.83
2022-12-23T07:52:58.041Z,207.82
2022-12-23T07:53:57.996Z,208.52
2022-12-23T07:54:58.028Z,207.36
2022-12-23T07:55:57.957Z,208.53
2022-12-23T07:56:57.988Z,207.08
2022-12-23T07:57:57.955Z,208.17
2022-12-23T07:58:57.972Z,207.87
2022-12-23T07:59:58.000Z,205.95
2022-12-23T08:00:58.049Z,207.71
2022-12-23T08:01:58.051Z,208.13
2022-12-23T08:02:58.212Z,206.48
2022-12-23T08:03:57.957Z,206.95
2022-12-23T08:04:57.991Z,205.07
2022-12-23T08:05:57.914Z,207.55
2022-12-23T08:06:57.932Z,205.09
2022-12-23T08:07:57.859Z,206.69
2022-12-23T08:08:57.893Z,203.71
2022-12-23T08:09:57.842Z,202.79
2022-12-23T08:10:57.879Z,206.21
2022-12-23T08:11:57.829Z,201.16
2022-12-23T08:12:57.820Z,203.15
2022-12-23T08:13:57.790Z,203.62
2022-12-23T08:14:57.805Z,203.65
2022-12-23T08:15:57.738Z,203.05
2022-12-23T08:16:57.800Z,202.83
2022-12-23T08:17:57.694Z,200.83
2022-12-23T08:18:57.732Z,202.46
2022-12-23T08:19:57.659Z,200.95
2022-12-23T08:20:57.695Z,202.06
2022-12-23T08:21:57.613Z,200.74
2022-12-23T08:22:57.639Z,199.69
2022-12-23T08:23:57.579Z,199.15
2022-12-23T08:24:57.606Z,201.29
2022-12-23T08:25:57.579Z,200.93
2022-12-23T08:26:57.609Z,199.17
2022-12-23T08:27:57.547Z,197.58
2022-12-23T08:28:57.583Z,200.45
2022-12-23T08:29:57.517Z,195.21
2022-12-23T08:30:57.564Z,198.17
2022-12-23T08:31:57.514Z,196.31
2022-12-23T08:32:57.551Z,196.62
2022-12-23T08:33:57.488Z,196.67
2022-12-23T08:34:57.513Z,194.86
2022-12-23T08:35:57.468Z,195.09
2022-12-23T08:36:57.490Z,195.98
2022-12-23T08:37:57.437Z,194.32
2022-12-23T08:38:57.454Z,195.58
2022-12-23T08:39:57.424Z,195.19
2022-12-23T08:40:57.456Z,193.18
2022-12-23T08:41:57.363Z,193.05
2022-12-23T08:42:57.414Z,192.83
2022-12-23T08:43:57.356Z,191.71
2022-12-23T08:44:57.389Z,191.08
2022-12-23T08:45:57.345Z,191.85
2022-12-23T08:46:57.360Z,192.45
2022-12-23T08:47:57.310Z,192.91
2022-12-23T08:48:57.369Z,190.12
2022-12-23T08:49:57.265Z,188.81
2022-12-23T08:50:57.317Z,188.78
2022-12-23T08:51:57.284Z,191.38
2022-12-23T08:52:57.305Z,189.88
2022-12-23T08:54:00.557Z,188.38
2022-12-23T08:54:57.252Z,188.72
2022-12-23T08:55:57.228Z,188.65
2022-12-23T08:56:57.303Z,189.16
2022-12-23T08:57:57.192Z,189.01
2022-12-23T08:58:57.240Z,187.64
2022-12-23T08:59:57.197Z,189.03
2022-12-23T09:00:57.215Z,184.18
2022-12-23T09:01:57.288Z,188.46
2022-12-23T09:02:57.282Z,186.77
2022-12-23T09:03:57.241Z,188.82
2022-12-23T09:04:57.205Z,189.05
2022-12-23T09:05:57.157Z,186.60
2022-12-23T09:06:57.149Z,186.08
2022-12-23T09:07:57.114Z,188.24
2022-12-23T09:08:57.143Z,185.72
2022-12-23T09:09:57.088Z,186.75
2022-12-23T09:10:57.117Z,188.64
2022-12-23T09:11:57.110Z,190.30
2022-12-23T09:12:58.244Z,187.21
2022-12-23T09:13:57.061Z,187.10
2022-12-23T09:14:57.067Z,188.16
2022-12-23T09:15:57.120Z,184.98
2022-12-23T09:16:57.062Z,188.45
2022-12-23T09:17:57.041Z,187.58
2022-12-23T09:18:57.038Z,187.82
2022-12-23T09:19:56.997Z,186.61
2022-12-23T09:20:57.012Z,185.86
2022-12-23T09:21:56.992Z,189.53
2022-12-23T09:22:56.980Z,188.09
2022-12-23T09:23:56.932Z,184.17
2022-12-23T09:25:03.087Z,187.53
2022-12-23T09:25:57.962Z,187.77
2022-12-23T09:26:56.882Z,187.91
2022-12-23T09:27:56.914Z,187.65
2022-12-23T09:28:56.859Z,189.08
2022-12-23T09:29:56.915Z,190.61
2022-12-23T09:30:56.845Z,186.45
2022-12-23T09:31:56.951Z,185.55
2022-12-23T09:32:56.806Z,184.44
2022-12-23T09:33:56.841Z,187.58
2022-12-23T09:34:56.790Z,184.14
2022-12-23T09:35:56.791Z,186.51
2022-12-23T09:36:56.766Z,180.59
2022-12-23T09:37:56.812Z,180.50
2022-12-23T09:38:56.763Z,183.97
2022-12-23T09:39:56.760Z,180.61
2022-12-23T09:40:56.717Z,181.31
2022-12-23T09:41:56.773Z,182.01
2022-12-23T09:42:56.687Z,181.88
2022-12-23T09:43:56.718Z,184.52
2022-12-23T09:44:56.656Z,179.31
2022-12-23T09:45:56.724Z,180.72
2022-12-23T09:46:56.709Z,186.95
2022-12-23T09:47:56.652Z,182.51
2022-12-23T09:48:56.611Z,180.79
2022-12-23T09:49:56.660Z,178.30
2022-12-23T09:50:56.592Z,178.20
2022-12-23T09:51:56.606Z,181.71
2022-12-23T09:52:56.581Z,183.36
2022-12-23T09:53:56.690Z,183.79
2022-12-23T09:54:56.568Z,179.69
2022-12-23T09:55:56.543Z,180.25
2022-12-23T09:56:56.714Z,176.25
2022-12-23T09:57:56.522Z,177.40
2022-12-23T09:58:56.471Z,179.20
2022-12-23T09:59:56.494Z,180.10
2022-12-23T10:00:57.994Z,176.69
2022-12-23T10:01:56.678Z,178.69
2022-12-23T10:02:56.739Z,176.03
2022-12-23T10:03:56.518Z,176.50
2022-12-23T10:04:56.434Z,176.89
2022-12-23T10:05:56.407Z,177.82
2022-12-23T10:07:02.508Z,177.06
2022-12-23T10:07:57.389Z,177.34
2022-12-23T10:08:56.360Z,177.95
2022-12-23T10:09:56.355Z,177.43
2022-12-23T10:10:56.329Z,177.30
2022-12-23T10:11:56.354Z,177.40
2022-12-23T10:12:56.305Z,175.71
2022-12-23T10:13:56.311Z,177.15
2022-12-23T10:14:56.292Z,174.47
2022-12-23T10:15:56.371Z,177.57
2022-12-23T10:16:56.269Z,176.66
2022-12-23T10:17:56.273Z,177.06
2022-12-23T10:18:56.188Z,175.48
2022-12-23T10:19:56.227Z,176.35
2022-12-23T10:20:56.165Z,176.81
2022-12-23T10:21:56.197Z,176.36
2022-12-23T10:22:56.147Z,179.93
2022-12-23T10:23:56.194Z,175.97
2022-12-23T10:24:56.121Z,179.98
2022-12-23T10:25:56.149Z,182.82
2022-12-23T10:26:56.101Z,181.92
2022-12-23T10:27:56.232Z,180.24
2022-12-23T10:28:56.153Z,185.00
2022-12-23T10:29:56.100Z,184.88
2022-12-23T10:31:24.000Z,191.48
2022-12-23T10:31:57.147Z,191.80
2022-12-23T10:32:56.066Z,190.82
2022-12-23T10:33:56.121Z,191.61
2022-12-23T10:34:56.029Z,185.50
2022-12-23T10:35:56.129Z,171.02
2022-12-23T10:36:56.057Z,148.54
2022-12-23T10:37:56.072Z,165.09
2022-12-23T10:38:56.020Z,134.12
2022-12-23T10:39:56.025Z,145.71
2022-12-23T10:40:55.984Z,158.06
2022-12-23T10:41:56.040Z,160.09
2022-12-23T10:42:55.989Z,140.15
2022-12-23T10:43:56.022Z,123.59
2022-12-23T10:44:55.978Z,134.22
2022-12-23T10:45:55.997Z,149.03
2022-12-23T10:46:56.035Z,139.77
2022-12-23T10:47:55.979Z,147.35
2022-12-23T10:48:55.919Z,141.52
2022-12-23T10:49:55.979Z,150.52
2022-12-23T10:50:55.923Z,151.37
2022-12-23T10:51:55.920Z,149.40
2022-12-23T10:52:55.891Z,148.34
2022-12-23T10:53:55.918Z,145.68
2022-12-23T10:54:55.888Z,142.26
2022-12-23T10:55:55.902Z,144.79
2022-12-23T10:56:55.860Z,141.38
2022-12-23T10:57:55.871Z,141.08
2022-12-23T10:58:55.845Z,144.19
2022-12-23T10:59:55.869Z,142.84
2022-12-23T11:00:55.910Z,145.19
2022-12-23T11:01:56.087Z,143.92
2022-12-23T11:02:55.993Z,144.90
2022-12-23T11:03:55.955Z,145.55
2022-12-23T11:04:55.796Z,146.64
2022-12-23T11:05:55.955Z,146.49
2022-12-23T11:07:11.080Z,148.42
2022-12-23T11:07:56.823Z,148.72
2022-12-23T11:08:55.783Z,148.46
2022-12-23T11:09:55.820Z,147.80
2022-12-23T11:10:55.735Z,147.24
2022-12-23T11:11:55.787Z,147.55
2022-12-23T11:12:55.749Z,148.76
2022-12-23T11:13:55.762Z,148.55
2022-12-23T11:14:55.730Z,150.20
2022-12-23T11:15:55.800Z,150.61
2022-12-23T11:16:55.780Z,151.77
2022-12-23T11:17:55.731Z,152.27
2022-12-23T11:18:55.688Z,151.47
2022-12-23T11:19:55.727Z,153.73
2022-12-23T11:20:55.681Z,154.88
2022-12-23T11:21:55.686Z,154.29
2022-12-23T11:22:55.624Z,157.40
2022-12-23T11:23:55.698Z,156.64
2022-12-23T11:24:55.633Z,160.50
2022-12-23T11:25:55.673Z,164.00
2022-12-23T11:26:55.621Z,166.18
2022-12-23T11:27:55.622Z,169.72
2022-12-23T11:28:55.596Z,177.50
2022-12-23T11:29:55.616Z,182.58
2022-12-23T11:30:56.892Z,188.47
2022-12-23T11:31:55.664Z,195.20
2022-12-23T11:32:55.553Z,202.23
2022-12-23T11:33:55.586Z,210.88
2022-12-23T11:34:55.603Z,219.51
2022-12-23T11:35:55.578Z,226.33
2022-12-23T11:36:58.677Z,234.18
2022-12-23T11:37:56.523Z,234.77
2022-12-23T11:38:55.481Z,236.61
2022-12-23T11:39:55.515Z,242.57
2022-12-23T11:40:55.459Z,252.75
2022-12-23T11:41:55.489Z,267.00
2022-12-23T11:42:55.525Z,250.00
2022-12-23T11:43:55.472Z,250.00
2022-12-23T11:44:55.411Z,247.19
2022-12-23T11:45:55.466Z,249.69
2022-12-23T11:46:55.414Z,247.52
2022-12-23T11:47:55.411Z,246.31
2022-12-23T11:48:55.403Z,249.67
2022-12-23T11:49:55.384Z,248.43
2022-12-23T11:50:55.451Z,248.25
2022-12-23T11:51:55.471Z,247.11
2022-12-23T11:52:55.380Z,249.01
2022-12-23T11:53:55.435Z,247.55
2022-12-23T11:54:55.352Z,248.05
2022-12-23T11:55:55.956Z,247.33
2022-12-23T11:56:56.636Z,247.68
2022-12-23T11:57:55.468Z,249.15
2022-12-23T11:58:55.592Z,253.99
2022-12-23T11:59:55.476Z,259.22
2022-12-23T12:00:56.221Z,262.75
2022-12-23T12:01:55.547Z,249.69
2022-12-23T12:02:55.667Z,250.00
2022-12-23T12:03:55.427Z,247.37
2022-12-23T12:04:55.525Z,246.68
2022-12-23T12:05:55.460Z,246.20
2022-12-23T12:06:56.810Z,246.76
2022-12-23T12:07:55.384Z,245.86
2022-12-23T12:08:55.423Z,245.96
2022-12-23T12:09:55.383Z,242.72
2022-12-23T12:10:55.435Z,243.24
2022-12-23T12:11:55.386Z,242.06
2022-12-23T12:12:55.386Z,243.62
2022-12-23T12:13:55.347Z,243.70
2022-12-23T12:14:55.405Z,244.06
2022-12-23T12:15:55.339Z,250.00
2022-12-23T12:16:55.321Z,248.40
2022-12-23T12:17:55.250Z,250.00
2022-12-23T12:18:56.026Z,245.58
2022-12-23T12:19:55.254Z,248.64
2022-12-23T12:20:55.400Z,240.21
2022-12-23T12:21:55.210Z,242.84
2022-12-23T12:22:55.235Z,237.42
2022-12-23T12:24:14.689Z,249.72
2022-12-23T12:24:56.227Z,246.63
2022-12-23T12:25:55.215Z,242.67
2022-12-23T12:26:55.210Z,242.28
2022-12-23T12:27:55.215Z,245.23